Terminal Aerodrome Forecast
Issued by NWS

Home | Current Version | Previous Version | Text Only | Print | Product List | Glossary On
Versions: 1 2 3 4 5 6 7 8 9 10 11 12 13 14 15 16 17 18 19 20 21 22 23 24 25 26 27 28 29 30 31 32
000
FTUS46 KEKA 260531
TAFCEC
TAF
KCEC 260531Z 2606/2706 17005KT P6SM FEW020 BKN040 BKN100
     FM261200 15013KT P6SM -RA SCT025 OVC040
     FM261500 15015KT P6SM -RA BKN025 OVC040
     FM261800 17020G28KT P6SM -RA BKN025 OVC035 WS020/18045KT
     FM262100 17013KT 4SM -RA BR BKN015 OVC025
     FM270100 19010KT 6SM -RA BR OVC025=

USA.gov is the U.S. government's official web portal to all federal, state and local government web resources and services.